Time;durP1;ratioP1;P1;durP2;ratioP2;P2;SDS_P1;SDS_P2;PMS_P1;PMS_P2;Temp;Humidity;BMP_temperature;BMP_pressure;BME280_temperature;BME280_humidity;BME280_pressure;Samples;Min_cycle;Max_cycle;Signal;HPM_P1;HPM_P2
2021/01/11 00:01:43;;;;;;;35.67;17.33;;;;;;;;;;5061140;28;20060;-71
2021/01/11 00:04:09;;;;;;;32.72;16.42;;;;;;;;;;5062038;28;20052;-71
2021/01/11 00:06:39;;;;;;;37.80;18.08;;;;;;;;;;5060566;28;20049;-71
2021/01/11 00:09:05;;;;;;;32.17;17.90;;;;;;;;;;5062657;28;20157;-72
2021/01/11 00:11:33;;;;;;;32.28;17.75;;;;;;;;;;5058607;28;20102;-72
2021/01/11 00:13:59;;;;;;;34.10;17.50;;;;;;;;;;5060829;28;20049;-72
2021/01/11 00:16:25;;;;;;;34.15;17.80;;;;;;;;;;5061233;28;20098;-72
2021/01/11 00:18:52;;;;;;;36.28;18.00;;;;;;;;;;5061993;28;20076;-72
2021/01/11 00:21:18;;;;;;;36.40;18.27;;;;;;;;;;5061416;28;20900;-73
2021/01/11 00:23:44;;;;;;;34.88;17.35;;;;;;;;;;5063339;28;20625;-72
2021/01/11 00:26:11;;;;;;;35.13;16.75;;;;;;;;;;5062027;28;20040;-72
2021/01/11 00:28:40;;;;;;;31.30;16.77;;;;;;;;;;5059758;28;20045;-73
2021/01/11 00:31:06;;;;;;;31.17;16.17;;;;;;;;;;5061322;28;20515;-73
2021/01/11 00:33:33;;;;;;;34.13;17.23;;;;;;;;;;5055021;28;20049;-73
2021/01/11 00:36:00;;;;;;;33.22;16.25;;;;;;;;;;5050822;28;20102;-73
2021/01/11 00:38:27;;;;;;;27.92;14.57;;;;;;;;;;5049809;28;20056;-72
2021/01/11 00:40:53;;;;;;;29.80;15.85;;;;;;;;;;5051598;28;20107;-73
2021/01/11 00:43:19;;;;;;;32.53;16.92;;;;;;;;;;5052815;28;20118;-73
2021/01/11 00:45:45;;;;;;;33.13;16.88;;;;;;;;;;5052384;28;20557;-73
2021/01/11 00:48:11;;;;;;;30.52;16.92;;;;;;;;;;5051552;28;20072;-73
2021/01/11 00:50:37;;;;;;;32.47;16.95;;;;;;;;;;5051436;28;20052;-73
2021/01/11 00:53:04;;;;;;;34.88;17.42;;;;;;;;;;5052612;28;20055;-72
2021/01/11 00:55:30;;;;;;;29.05;15.43;;;;;;;;;;5051893;28;20073;-72
2021/01/11 00:57:56;;;;;;;31.95;16.48;;;;;;;;;;5051383;28;20118;-72
2021/01/11 01:00:22;;;;;;;32.17;16.80;;;;;;;;;;5052405;28;20088;-73
2021/01/11 01:02:48;;;;;;;33.15;15.73;;;;;;;;;;5051349;28;20482;-72
2021/01/11 01:05:14;;;;;;;32.05;15.88;;;;;;;;;;5051886;28;20511;-72
2021/01/11 01:07:42;;;;;;;30.30;15.50;;;;;;;;;;5052499;28;20466;-72
2021/01/11 01:10:08;;;;;;;33.55;15.98;;;;;;;;;;5039602;28;20531;-72
2021/01/11 01:12:35;;;;;;;35.75;16.45;;;;;;;;;;5032358;28;20099;-73
2021/01/11 01:15:06;;;;;;;30.92;17.30;;;;;;;;;;5030955;28;20500;-72
2021/01/11 01:17:37;;;;;;;35.35;16.67;;;;;;;;;;5032094;28;20063;-72
2021/01/11 01:20:04;;;;;;;33.03;16.92;;;;;;;;;;5032147;28;20058;-72
2021/01/11 01:22:30;;;;;;;38.35;16.75;;;;;;;;;;5031879;28;20104;-72
2021/01/11 01:24:56;;;;;;;34.25;16.85;;;;;;;;;;5044377;28;20099;-72
2021/01/11 01:27:22;;;;;;;33.40;16.48;;;;;;;;;;5051623;28;20080;-72
2021/01/11 01:29:48;;;;;;;38.00;16.75;;;;;;;;;;5051961;28;20175;-72
2021/01/11 01:32:14;;;;;;;33.00;16.48;;;;;;;;;;5051667;28;20049;-72
2021/01/11 01:34:40;;;;;;;32.25;15.93;;;;;;;;;;5051840;28;20080;-72
2021/01/11 01:37:06;;;;;;;31.10;15.95;;;;;;;;;;5051728;28;20102;-72
2021/01/11 01:39:32;;;;;;;32.53;15.75;;;;;;;;;;5034849;28;20053;-72
2021/01/11 01:41:59;;;;;;;27.27;15.45;;;;;;;;;;5031878;28;20060;-72
2021/01/11 01:44:25;;;;;;;29.90;15.05;;;;;;;;;;5031723;28;20053;-72
2021/01/11 01:46:51;;;;;;;31.92;16.15;;;;;;;;;;5031447;28;20046;-72
2021/01/11 01:49:17;;;;;;;33.20;14.93;;;;;;;;;;5030513;28;20081;-72
2021/01/11 01:51:43;;;;;;;29.17;15.77;;;;;;;;;;5030729;28;20107;-72
2021/01/11 01:54:10;;;;;;;31.52;15.80;;;;;;;;;;5031821;28;20053;-72
2021/01/11 01:56:36;;;;;;;33.35;16.20;;;;;;;;;;5013889;28;20049;-72
2021/01/11 01:59:03;;;;;;;35.13;16.88;;;;;;;;;;5031638;28;20058;-72
2021/01/11 02:01:29;;;;;;;35.08;15.68;;;;;;;;;;5030339;28;20053;-72
2021/01/11 02:03:56;;;;;;;28.85;15.45;;;;;;;;;;5014228;28;20104;-72
2021/01/11 02:06:23;;;;;;;35.35;16.52;;;;;;;;;;5031183;28;20563;-72
2021/01/11 02:08:55;;;;;;;32.97;16.25;;;;;;;;;;5014279;28;20049;-72
2021/01/11 02:11:40;;;;;;;35.33;15.90;;;;;;;;;;5014715;28;20053;-72
2021/01/11 02:14:28;;;;;;;30.88;15.50;;;;;;;;;;5015638;28;20360;-72
2021/01/11 02:17:11;;;;;;;33.92;16.35;;;;;;;;;;5031582;28;20053;-72
2021/01/11 02:19:43;;;;;;;;;;;;;;;;;;5031028;28;20049;-72
2021/01/11 02:22:26;;;;;;;34.65;15.27;;;;;;;;;;5043774;28;19936;-72
2021/01/11 02:25:02;;;;;;;;;;;;;;;;;;5035691;28;20049;-72
2021/01/11 02:27:56;;;;;;;35.05;15.93;;;;;;;;;;5051025;28;19964;-72
2021/01/11 02:30:35;;;;;;;40.08;18.40;;;;;;;;;;5049896;28;20069;-72
2021/01/11 02:33:05;;;;;;;37.85;16.55;;;;;;;;;;5051286;28;20459;-72
2021/01/11 02:35:42;;;;;;;39.63;18.13;;;;;;;;;;5052611;28;20111;-72
2021/01/11 02:38:08;;;;;;;36.17;17.40;;;;;;;;;;5038794;28;20045;-72
2021/01/11 02:40:34;;;;;;;31.33;16.35;;;;;;;;;;5053889;28;20404;-72
2021/01/11 02:43:00;;;;;;;34.05;15.75;;;;;;;;;;5055155;28;20460;-72
2021/01/11 02:45:26;;;;;;;35.90;17.08;;;;;;;;;;5054446;28;20060;-72
2021/01/11 02:48:28;;;;;;;37.10;17.23;;;;;;;;;;5055078;28;20052;-72
2021/01/11 02:51:19;;;;;;;32.42;16.40;;;;;;;;;;5043482;28;20050;-72
2021/01/11 02:54:07;;;;;;;30.25;16.65;;;;;;;;;;5033803;28;20497;-72
2021/01/11 02:56:37;;;;;;;31.92;15.75;;;;;;;;;;5018700;28;20113;-72
2021/01/11 02:59:20;;;;;;;28.42;15.57;;;;;;;;;;5033749;28;20135;-72
2021/01/11 03:02:08;;;;;;;27.63;15.02;;;;;;;;;;5034914;28;20045;-72
2021/01/11 03:04:35;;;;;;;30.92;15.05;;;;;;;;;;5035211;28;20092;-72
2021/01/11 03:07:08;;;;;;;29.92;15.00;;;;;;;;;;5037032;28;20048;-72
2021/01/11 03:09:42;;;;;;;29.35;15.60;;;;;;;;;;5054546;28;20569;-72
2021/01/11 03:12:09;;;;;;;31.95;15.43;;;;;;;;;;5054680;28;20446;-72
2021/01/11 03:14:35;;;;;;;37.15;16.17;;;;;;;;;;5054388;28;20053;-72
2021/01/11 03:17:01;;;;;;;33.30;16.35;;;;;;;;;;5054400;28;20045;-72
2021/01/11 03:19:28;;;;;;;28.48;15.40;;;;;;;;;;5045725;28;20049;-72
2021/01/11 03:21:54;;;;;;;31.20;15.50;;;;;;;;;;5034481;28;20049;-72
2021/01/11 03:24:20;;;;;;;30.10;15.63;;;;;;;;;;5034274;28;20080;-72
2021/01/11 03:26:47;;;;;;;29.80;15.30;;;;;;;;;;5034146;28;20046;-72
2021/01/11 03:29:14;;;;;;;34.65;15.40;;;;;;;;;;5033030;28;20107;-72
2021/01/11 03:31:40;;;;;;;30.70;15.45;;;;;;;;;;5034180;28;20049;-72
2021/01/11 03:34:07;;;;;;;28.20;14.27;;;;;;;;;;5041656;28;20055;-71
2021/01/11 03:36:34;;;;;;;28.33;14.48;;;;;;;;;;5053244;28;20080;-71
2021/01/11 03:39:00;;;;;;;33.33;16.08;;;;;;;;;;5052449;28;20561;-71
2021/01/11 03:41:26;;;;;;;36.03;16.45;;;;;;;;;;5051794;28;20049;-71
2021/01/11 03:43:52;;;;;;;32.58;14.95;;;;;;;;;;5053271;28;20098;-71
2021/01/11 03:46:18;;;;;;;30.75;14.73;;;;;;;;;;5049097;28;20491;-70
2021/01/11 03:48:45;;;;;;;30.13;15.52;;;;;;;;;;5035013;28;20045;-70
2021/01/11 03:51:13;;;;;;;28.45;14.57;;;;;;;;;;5058948;28;20087;-70
2021/01/11 03:53:40;;;;;;;31.90;16.08;;;;;;;;;;5062647;28;20128;-71
2021/01/11 03:56:07;;;;;;;29.30;14.90;;;;;;;;;;5057394;28;20048;-71
2021/01/11 03:58:33;;;;;;;37.80;16.95;;;;;;;;;;5062653;28;20579;-70
2021/01/11 04:01:00;;;;;;;32.20;16.60;;;;;;;;;;5062352;28;20053;-71
2021/01/11 04:03:27;;;;;;;33.10;16.20;;;;;;;;;;5062956;28;20140;-71
2021/01/11 04:05:54;;;;;;;30.20;15.25;;;;;;;;;;5059804;28;20045;-71
2021/01/11 04:08:21;;;;;;;28.88;14.20;;;;;;;;;;5064338;28;20110;-70
2021/01/11 04:10:47;;;;;;;28.98;14.60;;;;;;;;;;5061360;28;20075;-71
2021/01/11 04:13:14;;;;;;;30.23;14.52;;;;;;;;;;5063785;28;20060;-71
2021/01/11 04:15:40;;;;;;;30.30;15.07;;;;;;;;;;5061159;28;20044;-70
2021/01/11 04:18:06;;;;;;;34.53;16.98;;;;;;;;;;5063804;28;20504;-70
2021/01/11 04:20:33;;;;;;;31.77;16.20;;;;;;;;;;5044879;28;20056;-71
2021/01/11 04:22:59;;;;;;;32.33;15.90;;;;;;;;;;5060129;28;20101;-71
2021/01/11 04:25:26;;;;;;;30.30;14.68;;;;;;;;;;5060611;28;20364;-71
2021/01/11 04:27:52;;;;;;;29.60;14.77;;;;;;;;;;5048426;28;20523;-70
2021/01/11 04:30:19;;;;;;;36.85;16.48;;;;;;;;;;5040633;28;20095;-71
2021/01/11 04:32:45;;;;;;;39.85;16.80;;;;;;;;;;5033165;28;20079;-71
2021/01/11 04:35:11;;;;;;;31.55;15.90;;;;;;;;;;5035383;28;20103;-70
2021/01/11 04:37:37;;;;;;;29.17;14.00;;;;;;;;;;5032929;28;20089;-71
2021/01/11 04:40:05;;;;;;;30.30;15.35;;;;;;;;;;5032951;28;20049;-70
2021/01/11 04:42:46;;;;;;;32.47;15.70;;;;;;;;;;5033616;28;20049;-71
2021/01/11 04:45:16;;;;;;;26.95;14.60;;;;;;;;;;5052503;28;20511;-70
2021/01/11 04:47:43;;;;;;;29.65;14.70;;;;;;;;;;5052748;28;20049;-68
2021/01/11 04:50:10;;;;;;;29.80;13.80;;;;;;;;;;5045704;28;20053;-68
2021/01/11 04:52:37;;;;;;;29.70;14.25;;;;;;;;;;5041673;28;20110;-69
2021/01/11 04:55:05;;;;;;;35.88;15.27;;;;;;;;;;5050279;28;20573;-68
2021/01/11 04:57:38;;;;;;;29.27;14.25;;;;;;;;;;5050623;28;20466;-68
2021/01/11 05:00:09;;;;;;;30.52;15.80;;;;;;;;;;5052548;28;20103;-68
2021/01/11 05:02:43;;;;;;;29.33;15.30;;;;;;;;;;5052467;28;20077;-68
2021/01/11 05:05:10;;;;;;;33.17;16.25;;;;;;;;;;5052252;28;20057;-70
2021/01/11 05:07:36;;;;;;;31.00;15.30;;;;;;;;;;5050905;28;20053;-68
2021/01/11 05:10:04;;;;;;;28.27;15.20;;;;;;;;;;5052389;28;20049;-68
2021/01/11 05:12:30;;;;;;;34.05;16.92;;;;;;;;;;5050877;28;20110;-68
2021/01/11 05:15:16;;;;;;;37.00;16.17;;;;;;;;;;5051053;28;20052;-68
2021/01/11 05:17:43;;;;;;;36.30;16.08;;;;;;;;;;5050913;28;20075;-69
2021/01/11 05:20:13;;;;;;;28.67;15.60;;;;;;;;;;5043605;28;20512;-68
2021/01/11 05:22:40;;;;;;;31.80;15.27;;;;;;;;;;5032058;28;20045;-68
2021/01/11 05:25:15;;;;;;;30.98;15.98;;;;;;;;;;5032087;28;20092;-68
2021/01/11 05:27:42;;;;;;;28.92;15.20;;;;;;;;;;5032146;28;20045;-69
2021/01/11 05:30:10;;;;;;;30.75;15.55;;;;;;;;;;5032087;28;20135;-68
2021/01/11 05:32:37;;;;;;;34.25;16.00;;;;;;;;;;5030819;28;20053;-68
2021/01/11 05:35:03;;;;;;;26.75;14.90;;;;;;;;;;5032121;28;20049;-68
2021/01/11 05:37:40;;;;;;;31.80;15.48;;;;;;;;;;5031700;28;20081;-68
2021/01/11 05:40:06;;;;;;;38.03;16.88;;;;;;;;;;5031838;28;20526;-68
2021/01/11 05:42:33;;;;;;;33.10;16.33;;;;;;;;;;5031656;28;20053;-68
2021/01/11 05:45:08;;;;;;;33.08;15.30;;;;;;;;;;5031877;28;20566;-68
2021/01/11 05:47:35;;;;;;;33.75;15.38;;;;;;;;;;5031782;28;20095;-68
2021/01/11 05:50:08;;;;;;;36.92;17.38;;;;;;;;;;5031742;28;20053;-68
2021/01/11 05:52:34;;;;;;;33.42;15.73;;;;;;;;;;5031462;28;20056;-68
2021/01/11 05:55:17;;;;;;;41.55;17.50;;;;;;;;;;5031511;28;20057;-68
2021/01/11 05:57:52;;;;;;;33.15;16.50;;;;;;;;;;5030736;28;20049;-68
2021/01/11 06:00:19;;;;;;;29.60;14.15;;;;;;;;;;5031719;28;20064;-68
2021/01/11 06:02:47;;;;;;;32.35;15.18;;;;;;;;;;5031613;28;20054;-68
2021/01/11 06:05:16;;;;;;;38.33;16.65;;;;;;;;;;5030356;28;20045;-67
2021/01/11 06:07:43;;;;;;;34.80;15.90;;;;;;;;;;5046747;28;20462;-68
2021/01/11 06:10:11;;;;;;;35.92;16.50;;;;;;;;;;5054040;28;20102;-68
2021/01/11 06:12:37;;;;;;;39.00;16.52;;;;;;;;;;5037966;28;20052;-68
2021/01/11 06:15:03;;;;;;;33.47;14.88;;;;;;;;;;5038372;28;20077;-71
2021/01/11 06:17:31;;;;;;;33.35;15.55;;;;;;;;;;5038568;28;20514;-69
2021/01/11 06:19:57;;;;;;;40.72;16.88;;;;;;;;;;5056037;28;20053;-69
2021/01/11 06:22:45;;;;;;;34.65;16.05;;;;;;;;;;5037756;28;20482;-69
2021/01/11 06:25:18;;;;;;;40.92;16.38;;;;;;;;;;5055224;28;20557;-69
2021/01/11 06:27:58;;;;;;;39.55;16.00;;;;;;;;;;5055526;28;20053;-70
2021/01/11 06:30:34;;;;;;;35.50;16.38;;;;;;;;;;5055158;28;20111;-69
2021/01/11 06:33:06;;;;;;;32.92;14.63;;;;;;;;;;5055414;28;20451;-69
2021/01/11 06:35:34;;;;;;;32.75;15.77;;;;;;;;;;5055002;28;20052;-70
2021/01/11 06:38:25;;;;;;;28.60;15.05;;;;;;;;;;5055447;28;20049;-69
2021/01/11 06:40:54;;;;;;;35.20;16.02;;;;;;;;;;5055207;28;20075;-69
2021/01/11 06:43:22;;;;;;;34.13;14.98;;;;;;;;;;5055168;28;20201;-69
2021/01/11 06:45:49;;;;;;;30.88;14.95;;;;;;;;;;5054876;28;20049;-69
2021/01/11 06:48:17;;;;;;;36.47;16.50;;;;;;;;;;5055066;28;20053;-70
2021/01/11 06:50:44;;;;;;;32.72;15.90;;;;;;;;;;5053721;28;20052;-69
2021/01/11 06:53:11;;;;;;;36.88;16.08;;;;;;;;;;5039373;28;20053;-69
2021/01/11 06:55:37;;;;;;;31.35;14.93;;;;;;;;;;5034406;28;20053;-69
2021/01/11 06:58:03;;;;;;;37.00;15.80;;;;;;;;;;5034931;28;20085;-68
2021/01/11 07:00:32;;;;;;;31.17;14.77;;;;;;;;;;5034873;28;20119;-68
2021/01/11 07:02:59;;;;;;;34.58;16.05;;;;;;;;;;5035015;28;20053;-68
2021/01/11 07:05:37;;;;;;;33.22;16.02;;;;;;;;;;5034367;28;20107;-68
2021/01/11 07:08:04;;;;;;;34.60;15.27;;;;;;;;;;5034838;28;20124;-68
2021/01/11 07:10:31;;;;;;;40.58;18.88;;;;;;;;;;5034541;28;20053;-68
2021/01/11 07:13:18;;;;;;;55.63;20.70;;;;;;;;;;5041381;28;20128;-68
2021/01/11 07:15:50;;;;;;;48.53;18.75;;;;;;;;;;5054051;28;20041;-67
2021/01/11 07:18:53;;;;;;;36.17;13.98;;;;;;;;;;5054541;28;20481;-69
2021/01/11 07:21:23;;;;;;;37.22;15.65;;;;;;;;;;5011980;28;20060;-68
2021/01/11 07:23:50;;;;;;;37.65;18.33;;;;;;;;;;5047183;28;20126;-68
2021/01/11 07:26:18;;;;;;;36.08;16.17;;;;;;;;;;5044735;28;20566;-68
2021/01/11 07:28:54;;;;;;;39.67;18.42;;;;;;;;;;5032410;28;20045;-69
2021/01/11 07:31:24;;;;;;;39.50;17.85;;;;;;;;;;5032534;28;20148;-68
2021/01/11 07:33:55;;;;;;;42.38;19.90;;;;;;;;;;5032417;28;20053;-68
2021/01/11 07:36:21;;;;;;;42.75;18.23;;;;;;;;;;5032764;28;20111;-68
2021/01/11 07:38:48;;;;;;;50.28;20.17;;;;;;;;;;5033178;28;20077;-68
2021/01/11 07:41:26;;;;;;;40.88;18.40;;;;;;;;;;5032247;28;20123;-68
2021/01/11 07:44:10;;;;;;;44.22;18.08;;;;;;;;;;5032905;28;20053;-68
2021/01/11 07:46:37;;;;;;;44.30;18.48;;;;;;;;;;5009655;28;20404;-68
2021/01/11 07:49:13;;;;;;;39.80;17.80;;;;;;;;;;5061033;28;20086;-69
2021/01/11 07:51:40;;;;;;;37.83;17.63;;;;;;;;;;5059076;28;20060;-68
2021/01/11 07:54:08;;;;;;;40.75;17.73;;;;;;;;;;5058508;28;20105;-68
2021/01/11 07:56:34;;;;;;;40.20;17.98;;;;;;;;;;5054504;28;20052;-68
2021/01/11 07:59:03;;;;;;;38.10;18.05;;;;;;;;;;5060418;28;20113;-68
2021/01/11 08:01:30;;;;;;;37.03;16.23;;;;;;;;;;5057996;28;20515;-68
2021/01/11 08:03:56;;;;;;;40.05;17.23;;;;;;;;;;5059337;28;20044;-68
2021/01/11 08:06:23;;;;;;;41.83;18.23;;;;;;;;;;5058605;28;20385;-68
2021/01/11 08:08:52;;;;;;;36.47;16.50;;;;;;;;;;5058317;28;20053;-68
2021/01/11 08:11:18;;;;;;;44.17;18.50;;;;;;;;;;5060461;28;20057;-68
2021/01/11 08:13:44;;;;;;;35.78;15.65;;;;;;;;;;5060542;28;20072;-67
2021/01/11 08:16:12;;;;;;;46.60;19.17;;;;;;;;;;5054559;28;20516;-68
2021/01/11 08:18:39;;;;;;;49.13;19.55;;;;;;;;;;5049589;28;20053;-68
2021/01/11 08:21:09;;;;;;;49.10;22.40;;;;;;;;;;5040247;28;20053;-69
2021/01/11 08:23:37;;;;;;;40.60;19.02;;;;;;;;;;5030053;28;20057;-68
2021/01/11 08:26:08;;;;;;;41.80;18.60;;;;;;;;;;5029730;28;20115;-69
2021/01/11 08:28:35;;;;;;;34.97;17.80;;;;;;;;;;5029854;28;20089;-68
2021/01/11 08:31:01;;;;;;;38.78;17.58;;;;;;;;;;5029788;28;20095;-68
2021/01/11 08:33:28;;;;;;;35.50;17.40;;;;;;;;;;5007464;28;20519;-69
2021/01/11 08:36:24;;;;;;;41.97;16.98;;;;;;;;;;5047990;28;20492;-69
2021/01/11 08:39:05;;;;;;;40.50;18.35;;;;;;;;;;5056351;28;20049;-69
2021/01/11 08:41:32;;;;;;;40.20;18.20;;;;;;;;;;5060392;28;20056;-67
2021/01/11 08:43:59;;;;;;;37.00;17.33;;;;;;;;;;5058711;28;20648;-67
2021/01/11 08:47:03;;;;;;;37.33;17.80;;;;;;;;;;5054064;28;20095;-68
2021/01/11 08:49:30;;;;;;;37.42;16.52;;;;;;;;;;5055635;28;20052;-69
2021/01/11 08:52:11;;;;;;;36.97;17.27;;;;;;;;;;5057120;28;20053;-70
2021/01/11 08:54:38;;;;;;;35.85;17.55;;;;;;;;;;5060763;28;20044;-70
2021/01/11 08:57:14;;;;;;;40.50;17.10;;;;;;;;;;5054238;28;20049;-68
2021/01/11 08:59:50;;;;;;;38.92;17.98;;;;;;;;;;5059601;28;20048;-70
2021/01/11 09:02:25;;;;;;;33.70;16.40;;;;;;;;;;5058242;28;20048;-68
2021/01/11 09:04:52;;;;;;;32.78;16.48;;;;;;;;;;5053731;28;20127;-68
2021/01/11 09:07:31;;;;;;;31.95;15.95;;;;;;;;;;5059143;28;20045;-68
2021/01/11 09:09:58;;;;;;;32.25;15.35;;;;;;;;;;5058612;28;20045;-67
2021/01/11 09:12:34;;;;;;;28.23;15.20;;;;;;;;;;5058274;28;20049;-68
2021/01/11 09:15:00;;;;;;;31.40;15.43;;;;;;;;;;5058457;28;20095;-68
2021/01/11 09:17:27;;;;;;;31.42;15.80;;;;;;;;;;5061727;28;20049;-69
2021/01/11 09:19:54;;;;;;;29.85;14.50;;;;;;;;;;5061391;28;20419;-71
2021/01/11 09:22:41;;;;;;;25.63;13.43;;;;;;;;;;5059473;28;20049;-69
2021/01/11 09:25:12;;;;;;;27.63;13.98;;;;;;;;;;5055961;28;20044;-67
2021/01/11 09:27:39;;;;;;;28.75;14.38;;;;;;;;;;5060411;28;20048;-68
2021/01/11 09:30:07;;;;;;;27.05;13.88;;;;;;;;;;5059891;28;20048;-69
2021/01/11 09:32:33;;;;;;;27.83;14.93;;;;;;;;;;5038322;28;20052;-68
2021/01/11 09:35:00;;;;;;;27.75;13.52;;;;;;;;;;5056553;28;20461;-70
2021/01/11 09:37:26;;;;;;;26.55;15.05;;;;;;;;;;5060439;28;20049;-71
2021/01/11 09:39:52;;;;;;;29.92;14.48;;;;;;;;;;5059573;28;20423;-68
2021/01/11 09:42:18;;;;;;;27.63;13.77;;;;;;;;;;5062324;28;20049;-68
2021/01/11 09:44:44;;;;;;;26.00;13.30;;;;;;;;;;5060893;28;20056;-70
2021/01/11 09:47:11;;;;;;;26.25;14.57;;;;;;;;;;5046791;28;20489;-70
2021/01/11 09:49:37;;;;;;;27.42;13.68;;;;;;;;;;5055447;28;20055;-70
2021/01/11 09:52:04;;;;;;;28.98;13.23;;;;;;;;;;5059909;28;20044;-71
2021/01/11 09:54:31;;;;;;;25.65;11.85;;;;;;;;;;5054693;28;20130;-70
2021/01/11 09:56:58;;;;;;;29.15;13.65;;;;;;;;;;5061672;28;20049;-71
2021/01/11 09:59:24;;;;;;;26.80;12.00;;;;;;;;;;5058684;28;20040;-70
2021/01/11 10:01:50;;;;;;;26.38;12.63;;;;;;;;;;5062044;28;20140;-73
2021/01/11 10:04:19;;;;;;;24.20;12.10;;;;;;;;;;5061166;28;20045;-70
2021/01/11 10:06:50;;;;;;;24.63;11.80;;;;;;;;;;5058225;28;20048;-69
2021/01/11 10:09:27;;;;;;;24.55;12.88;;;;;;;;;;5060118;28;20048;-69
2021/01/11 10:11:55;;;;;;;26.73;14.57;;;;;;;;;;5059469;28;20044;-68
2021/01/11 10:14:22;;;;;;;25.13;14.10;;;;;;;;;;5061480;28;20475;-69
2021/01/11 10:16:50;;;;;;;25.38;12.75;;;;;;;;;;5056659;28;20079;-68
2021/01/11 10:19:21;;;;;;;27.15;13.50;;;;;;;;;;5054551;28;20420;-68
2021/01/11 10:21:48;;;;;;;24.05;12.40;;;;;;;;;;5032677;28;20072;-68
2021/01/11 10:24:15;;;;;;;27.25;14.05;;;;;;;;;;5058301;28;20126;-68
2021/01/11 10:26:42;;;;;;;27.42;13.82;;;;;;;;;;5060079;28;20494;-68
2021/01/11 10:29:09;;;;;;;25.80;14.25;;;;;;;;;;5058170;28;20098;-68
2021/01/11 10:31:35;;;;;;;26.52;13.23;;;;;;;;;;5059874;28;20068;-68
2021/01/11 10:34:01;;;;;;;25.17;13.95;;;;;;;;;;5057576;28;20044;-67
2021/01/11 10:36:29;;;;;;;25.70;13.40;;;;;;;;;;5059483;28;20087;-67
2021/01/11 10:38:55;;;;;;;29.40;14.25;;;;;;;;;;5057581;28;20106;-68
2021/01/11 10:41:21;;;;;;;26.83;14.60;;;;;;;;;;5060854;28;20075;-67
2021/01/11 10:43:48;;;;;;;27.20;14.02;;;;;;;;;;5060213;28;20110;-68
2021/01/11 10:46:17;;;;;;;25.05;12.95;;;;;;;;;;5058529;28;20107;-67
2021/01/11 10:48:46;;;;;;;26.98;12.60;;;;;;;;;;5058289;28;20049;-67
2021/01/11 10:51:14;;;;;;;26.02;13.50;;;;;;;;;;5054758;28;20049;-67
2021/01/11 10:53:41;;;;;;;25.85;13.73;;;;;;;;;;5058913;28;20481;-67
2021/01/11 10:56:07;;;;;;;22.63;12.50;;;;;;;;;;5060184;28;20049;-67
2021/01/11 10:58:34;;;;;;;22.33;13.43;;;;;;;;;;5063147;28;20045;-68
2021/01/11 11:01:01;;;;;;;23.60;12.80;;;;;;;;;;5064102;28;20106;-68
2021/01/11 11:03:27;;;;;;;25.08;13.73;;;;;;;;;;5063412;28;20044;-68
2021/01/11 11:05:53;;;;;;;25.75;11.82;;;;;;;;;;5062231;28;20080;-68
2021/01/11 11:08:20;;;;;;;24.02;13.90;;;;;;;;;;5060144;28;20099;-67
2021/01/11 11:10:46;;;;;;;23.35;12.93;;;;;;;;;;5064466;28;20044;-69
2021/01/11 11:13:12;;;;;;;26.30;12.98;;;;;;;;;;5062645;28;20048;-68
2021/01/11 11:15:42;;;;;;;27.40;14.20;;;;;;;;;;5063163;28;20049;-69
2021/01/11 11:18:09;;;;;;;26.02;13.27;;;;;;;;;;5062148;28;20487;-69
2021/01/11 11:20:35;;;;;;;27.80;13.52;;;;;;;;;;5062212;28;20049;-69
2021/01/11 11:23:01;;;;;;;25.52;13.20;;;;;;;;;;5064853;28;20484;-67
2021/01/11 11:25:27;;;;;;;24.73;11.95;;;;;;;;;;5062960;28;20044;-68
2021/01/11 11:27:54;;;;;;;30.50;12.93;;;;;;;;;;5058891;28;20128;-68
2021/01/11 11:30:20;;;;;;;24.55;13.55;;;;;;;;;;5061879;28;20101;-68
2021/01/11 11:32:47;;;;;;;25.73;13.18;;;;;;;;;;5064609;28;20499;-68
2021/01/11 11:35:14;;;;;;;23.98;12.70;;;;;;;;;;5061909;28;20048;-68
2021/01/11 11:37:41;;;;;;;25.52;12.55;;;;;;;;;;5060919;28;20057;-68
2021/01/11 11:40:10;;;;;;;26.08;13.68;;;;;;;;;;5062740;28;20487;-68
2021/01/11 11:42:37;;;;;;;24.13;12.88;;;;;;;;;;5062926;28;20391;-68
2021/01/11 11:45:04;;;;;;;24.80;13.05;;;;;;;;;;5061746;28;20107;-69
2021/01/11 11:47:32;;;;;;;23.42;12.80;;;;;;;;;;5063192;28;20045;-67
2021/01/11 11:50:03;;;;;;;22.70;13.20;;;;;;;;;;5062171;28;20052;-69
2021/01/11 11:52:29;;;;;;;26.75;12.70;;;;;;;;;;5062114;28;20075;-69
2021/01/11 11:54:59;;;;;;;20.42;11.55;;;;;;;;;;5064445;28;20170;-68
2021/01/11 11:57:25;;;;;;;21.83;12.27;;;;;;;;;;5052663;28;20103;-68
2021/01/11 11:59:51;;;;;;;22.63;13.02;;;;;;;;;;5051145;28;20407;-68
2021/01/11 12:02:18;;;;;;;19.85;12.10;;;;;;;;;;5050777;28;20463;-69
2021/01/11 12:04:44;;;;;;;21.17;12.23;;;;;;;;;;5052643;28;20049;-72
2021/01/11 12:07:13;;;;;;;29.50;14.35;;;;;;;;;;5051996;28;20475;-68
2021/01/11 12:09:40;;;;;;;26.88;12.57;;;;;;;;;;5053257;28;20053;-70
2021/01/11 12:12:06;;;;;;;23.55;12.70;;;;;;;;;;5033435;28;20112;-70
2021/01/11 12:14:32;;;;;;;23.85;12.35;;;;;;;;;;5028963;28;20080;-71
2021/01/11 12:16:58;;;;;;;21.80;12.05;;;;;;;;;;5054806;28;20458;-71
2021/01/11 12:19:25;;;;;;;26.17;13.27;;;;;;;;;;5062146;28;20045;-69
2021/01/11 12:21:51;;;;;;;27.42;12.05;;;;;;;;;;5059273;28;20081;-71
2021/01/11 12:24:17;;;;;;;22.92;11.90;;;;;;;;;;5063250;28;20052;-74
2021/01/11 12:26:48;;;;;;;28.50;12.73;;;;;;;;;;5062111;28;20056;-71
2021/01/11 12:29:14;;;;;;;20.98;11.52;;;;;;;;;;5062333;28;20049;-71
2021/01/11 12:31:41;;;;;;;20.83;11.77;;;;;;;;;;5059962;28;20426;-74
2021/01/11 12:34:07;;;;;;;21.38;11.80;;;;;;;;;;5043232;28;20106;-74
2021/01/11 12:36:35;;;;;;;19.80;12.73;;;;;;;;;;5060256;28;20084;-73
2021/01/11 12:39:04;;;;;;;19.08;11.05;;;;;;;;;;5064432;28;20053;-70
2021/01/11 12:41:30;;;;;;;19.45;11.02;;;;;;;;;;5062601;28;20086;-70
2021/01/11 12:44:00;;;;;;;19.85;12.18;;;;;;;;;;5058037;28;20052;-72
2021/01/11 12:46:26;;;;;;;18.45;11.13;;;;;;;;;;5061276;28;20102;-70
2021/01/11 12:48:53;;;;;;;21.20;11.90;;;;;;;;;;5061541;28;20045;-73
2021/01/11 12:51:21;;;;;;;29.15;12.40;;;;;;;;;;5059770;28;20455;-70
2021/01/11 12:53:49;;;;;;;20.48;11.13;;;;;;;;;;5060813;28;20053;-71
2021/01/11 12:56:25;;;;;;;19.45;10.80;;;;;;;;;;5059802;28;20095;-70
2021/01/11 12:58:55;;;;;;;18.63;11.02;;;;;;;;;;5056495;28;20041;-70
2021/01/11 13:01:21;;;;;;;20.35;11.10;;;;;;;;;;5058324;28;20122;-73
2021/01/11 13:03:47;;;;;;;18.58;11.02;;;;;;;;;;5059463;28;20515;-73
2021/01/11 13:06:36;;;;;;;16.00;10.07;;;;;;;;;;5062237;28;20048;-74
2021/01/11 13:09:12;;;;;;;18.70;10.98;;;;;;;;;;5043879;28;20105;-74
2021/01/11 13:11:41;;;;;;;16.67;10.73;;;;;;;;;;5060178;28;20053;-73
2021/01/11 13:14:25;;;;;;;20.00;11.32;;;;;;;;;;5059681;28;20075;-75
2021/01/11 13:16:53;;;;;;;21.17;10.95;;;;;;;;;;5055210;28;20120;-71
2021/01/11 13:19:20;;;;;;;18.63;11.45;;;;;;;;;;5058534;28;20052;-76
2021/01/11 13:21:47;;;;;;;20.88;12.25;;;;;;;;;;5060183;28;20069;-72
2021/01/11 13:24:14;;;;;;;16.75;10.43;;;;;;;;;;5060606;28;20422;-72
2021/01/11 13:26:43;;;;;;;21.08;11.23;;;;;;;;;;5041810;28;20155;-71
2021/01/11 13:29:12;;;;;;;17.88;10.75;;;;;;;;;;5060058;28;20529;-72
2021/01/11 13:31:46;;;;;;;17.65;11.00;;;;;;;;;;5058549;28;20135;-70
2021/01/11 13:34:14;;;;;;;17.42;12.02;;;;;;;;;;5075644;28;20453;-68
2021/01/11 13:36:40;;;;;;;19.17;11.38;;;;;;;;;;5059244;28;20057;-69
2021/01/11 13:39:07;;;;;;;20.13;11.13;;;;;;;;;;5060103;28;20044;-67
2021/01/11 13:41:38;;;;;;;20.88;11.95;;;;;;;;;;5057645;28;20086;-69
2021/01/11 13:44:06;;;;;;;16.38;10.13;;;;;;;;;;5061447;28;20086;-71
2021/01/11 13:46:35;;;;;;;21.73;11.52;;;;;;;;;;5060323;28;20049;-68
2021/01/11 13:49:02;;;;;;;19.80;11.57;;;;;;;;;;5057677;28;20052;-67
2021/01/11 13:51:29;;;;;;;17.52;11.23;;;;;;;;;;5060769;28;20049;-71
2021/01/11 13:53:56;;;;;;;18.17;11.40;;;;;;;;;;5058301;28;20045;-70
2021/01/11 13:56:23;;;;;;;18.08;10.70;;;;;;;;;;5057401;28;20072;-68
2021/01/11 13:58:51;;;;;;;17.48;11.45;;;;;;;;;;5061569;28;20574;-67
2021/01/11 14:01:18;;;;;;;18.48;11.25;;;;;;;;;;5060730;28;20054;-69
2021/01/11 14:03:45;;;;;;;16.95;10.13;;;;;;;;;;5058917;28;20055;-70
2021/01/11 14:06:13;;;;;;;24.42;11.63;;;;;;;;;;5059861;28;20140;-68
2021/01/11 14:08:40;;;;;;;19.25;11.75;;;;;;;;;;5058811;28;20048;-68
2021/01/11 14:11:07;;;;;;;17.08;10.82;;;;;;;;;;5060871;28;20144;-68
2021/01/11 14:13:36;;;;;;;19.85;11.40;;;;;;;;;;5060101;28;20090;-68
2021/01/11 14:16:04;;;;;;;20.08;11.57;;;;;;;;;;5058923;28;20049;-67
2021/01/11 14:18:31;;;;;;;22.52;13.10;;;;;;;;;;5056002;28;20130;-67
2021/01/11 14:20:58;;;;;;;19.83;12.05;;;;;;;;;;5059708;28;20041;-69
2021/01/11 14:23:25;;;;;;;22.15;11.27;;;;;;;;;;5037809;28;20080;-68
2021/01/11 14:25:51;;;;;;;21.17;10.95;;;;;;;;;;5055600;28;20049;-68
2021/01/11 14:28:18;;;;;;;18.90;10.88;;;;;;;;;;5057401;28;20527;-69
2021/01/11 14:30:44;;;;;;;20.67;10.85;;;;;;;;;;5060269;28;20053;-69